Time;durP1;ratioP1;P1;durP2;ratioP2;P2;SDS_P1;SDS_P2;PMS_P1;PMS_P2;Temp;Humidity;BMP_temperature;BMP_pressure;BME280_temperature;BME280_humidity;BME280_pressure;Samples;Min_cycle;Max_cycle;Signal;HPM_P1;HPM_P2
2021/08/31 00:02:02;;;;;;;7.93;6.97;;;15.40;99.90;;;;;;5020898;28;20436;-75
2021/08/31 00:04:49;;;;;;;8.60;6.60;;;15.50;99.90;;;;;;5030778;28;21241;-77
2021/08/31 00:07:35;;;;;;;9.13;6.67;;;15.50;99.90;;;;;;5024669;28;20472;-76
2021/08/31 00:10:21;;;;;;;9.37;7.00;;;15.60;99.90;;;;;;5031827;28;20456;-76
2021/08/31 00:13:07;;;;;;;7.07;6.30;;;15.60;99.90;;;;;;5025697;28;20485;-76
2021/08/31 00:15:52;;;;;;;10.47;7.93;;;15.60;99.90;;;;;;5031072;28;20461;-75
2021/08/31 00:18:38;;;;;;;8.60;6.97;;;15.70;99.90;;;;;;5023990;28;20467;-76
2021/08/31 00:21:25;;;;;;;10.17;6.80;;;15.70;99.90;;;;;;5023991;28;20454;-75
2021/08/31 00:24:11;;;;;;;9.53;6.70;;;15.60;99.90;;;;;;5029133;28;20447;-75
2021/08/31 00:26:56;;;;;;;9.73;6.63;;;15.50;99.90;;;;;;5032156;28;20447;-76
2021/08/31 00:29:42;;;;;;;14.00;8.63;;;15.50;99.90;;;;;;5022769;28;20462;-76
2021/08/31 00:32:27;;;;;;;11.10;7.43;;;15.50;99.90;;;;;;5031228;28;20447;-74
2021/08/31 00:35:13;;;;;;;10.03;7.10;;;15.50;99.90;;;;;;5024749;28;21032;-77
2021/08/31 00:38:00;;;;;;;9.87;7.07;;;15.40;99.90;;;;;;5019942;28;20464;-76
2021/08/31 00:40:47;;;;;;;16.77;8.07;;;15.40;99.90;;;;;;5027485;28;20576;-76
2021/08/31 00:43:43;;;;;;;8.27;7.37;;;15.40;99.90;;;;;;5023755;28;20463;-76
2021/08/31 00:46:29;;;;;;;7.70;6.90;;;15.30;99.90;;;;;;5023541;28;20451;-76
2021/08/31 00:49:14;;;;;;;11.53;7.50;;;15.40;99.90;;;;;;5023656;28;20811;-76
2021/08/31 00:52:00;;;;;;;9.57;7.70;;;15.40;99.90;;;;;;5022943;28;20455;-76
2021/08/31 00:54:48;;;;;;;9.53;7.50;;;15.40;99.90;;;;;;5030800;28;20445;-76
2021/08/31 00:57:34;;;;;;;8.63;7.37;;;15.50;99.90;;;;;;5020694;28;20445;-76
2021/08/31 01:00:20;;;;;;;12.57;6.93;;;15.50;99.90;;;;;;5030966;28;21130;-75
2021/08/31 01:03:05;;;;;;;7.60;6.23;;;15.50;99.90;;;;;;5025863;28;20465;-76
2021/08/31 01:05:51;;;;;;;9.60;6.90;;;15.50;99.90;;;;;;5027669;28;20560;-76
2021/08/31 01:08:37;;;;;;;9.53;7.30;;;15.60;99.90;;;;;;5020743;28;20461;-76
2021/08/31 01:11:24;;;;;;;9.33;6.33;;;15.60;99.90;;;;;;5029030;28;21008;-76
2021/08/31 01:14:10;;;;;;;11.80;7.30;;;15.60;99.90;;;;;;5021628;28;20830;-75
2021/08/31 01:16:56;;;;;;;8.87;6.73;;;15.60;99.90;;;;;;5022976;28;20428;-76
2021/08/31 01:19:42;;;;;;;9.73;6.60;;;15.50;99.90;;;;;;5023165;28;21021;-77
2021/08/31 01:22:28;;;;;;;7.97;6.80;;;15.40;99.90;;;;;;5026939;28;20431;-74
2021/08/31 01:25:15;;;;;;;10.23;6.93;;;15.30;99.90;;;;;;5022203;28;20422;-76
2021/08/31 01:28:00;;;;;;;15.13;7.40;;;15.20;99.90;;;;;;5029657;28;20471;-77
2021/08/31 01:30:48;;;;;;;12.07;7.20;;;15.10;99.90;;;;;;5023674;28;20428;-76
2021/08/31 01:33:34;;;;;;;12.13;7.83;;;15.00;99.90;;;;;;5019810;28;20505;-76
2021/08/31 01:36:21;;;;;;;12.70;7.30;;;15.00;99.90;;;;;;5022050;28;20595;-76
2021/08/31 01:39:07;;;;;;;10.90;7.60;;;14.90;99.90;;;;;;5015196;28;20423;-76
2021/08/31 01:41:54;;;;;;;13.53;7.40;;;14.90;99.90;;;;;;5021916;28;20483;-76
2021/08/31 01:44:40;;;;;;;11.23;8.23;;;14.90;99.90;;;;;;5021062;28;20961;-76
2021/08/31 01:47:25;;;;;;;12.40;7.17;;;15.00;99.90;;;;;;5022285;28;20962;-75
2021/08/31 01:50:11;;;;;;;15.20;7.63;;;15.10;99.90;;;;;;5022700;28;20561;-76
2021/08/31 01:52:57;;;;;;;9.20;8.30;;;15.20;99.90;;;;;;5013755;28;20524;-76
2021/08/31 01:55:43;;;;;;;13.53;7.37;;;15.30;99.90;;;;;;5022689;28;20803;-76
2021/08/31 01:58:30;;;;;;;10.07;7.17;;;15.30;99.90;;;;;;5027981;28;20822;-76
2021/08/31 02:01:16;;;;;;;10.23;7.60;;;15.40;99.90;;;;;;5024260;28;20445;-75
2021/08/31 02:04:01;;;;;;;8.00;6.67;;;15.40;99.90;;;;;;5031356;28;20777;-76
2021/08/31 02:06:47;;;;;;;8.03;7.00;;;15.50;99.90;;;;;;5021586;28;20480;-76
2021/08/31 02:09:32;;;;;;;10.27;7.43;;;15.40;99.90;;;;;;5028223;28;20565;-76
2021/08/31 02:12:18;;;;;;;10.67;7.70;;;15.40;99.90;;;;;;5027141;28;20427;-75
2021/08/31 02:15:06;;;;;;;9.57;7.07;;;15.40;99.90;;;;;;5022728;28;20510;-77
2021/08/31 02:17:51;;;;;;;14.23;7.40;;;15.40;99.90;;;;;;5023731;28;20444;-76
2021/08/31 02:20:36;;;;;;;14.60;7.23;;;15.40;99.90;;;;;;5028240;28;20424;-76
2021/08/31 02:23:22;;;;;;;7.10;6.40;;;15.40;99.90;;;;;;5022205;28;20471;-75
2021/08/31 02:26:08;;;;;;;8.80;6.90;;;15.50;99.90;;;;;;5016366;28;20827;-76
2021/08/31 02:28:53;;;;;;;9.27;7.00;;;15.50;99.90;;;;;;5030511;28;20923;-76
2021/08/31 02:31:40;;;;;;;8.87;7.07;;;15.40;99.90;;;;;;5026640;28;20424;-76
2021/08/31 02:34:26;;;;;;;9.93;6.83;;;15.30;99.90;;;;;;5024084;28;20467;-76
2021/08/31 02:37:12;;;;;;;10.90;6.37;;;15.10;99.90;;;;;;5018652;28;20445;-76
2021/08/31 02:39:57;;;;;;;10.10;7.03;;;15.00;99.90;;;;;;5022638;28;20421;-76
2021/08/31 02:42:43;;;;;;;8.63;7.27;;;14.80;99.90;;;;;;5028746;28;20466;-75
2021/08/31 02:45:28;;;;;;;7.27;6.20;;;14.80;99.90;;;;;;5030827;28;20417;-76
2021/08/31 02:48:15;;;;;;;14.73;8.90;;;14.70;99.90;;;;;;5025736;28;20554;-75
2021/08/31 02:51:01;;;;;;;10.67;7.50;;;14.60;99.90;;;;;;5020118;28;20459;-75
2021/08/31 02:53:47;;;;;;;14.23;7.30;;;14.50;99.90;;;;;;5030635;28;20427;-75
2021/08/31 02:56:32;;;;;;;9.03;7.07;;;14.40;99.90;;;;;;5026150;28;20477;-75
2021/08/31 02:59:18;;;;;;;14.93;8.17;;;14.30;99.90;;;;;;5020875;28;20453;-76
2021/08/31 03:02:07;;;;;;;8.53;7.23;;;14.30;99.90;;;;;;5020243;28;20878;-75
2021/08/31 03:04:55;;;;;;;9.43;7.53;;;14.30;99.90;;;;;;5033286;28;20997;-75
2021/08/31 03:07:41;;;;;;;10.63;7.73;;;14.20;99.90;;;;;;5032803;28;20472;-75
2021/08/31 03:10:27;;;;;;;12.97;6.97;;;14.10;99.90;;;;;;5030976;28;20451;-75
2021/08/31 03:13:13;;;;;;;15.00;7.40;;;14.00;99.90;;;;;;5032568;28;20836;-75
2021/08/31 03:15:58;;;;;;;16.40;7.70;;;13.90;99.90;;;;;;5026265;28;20420;-75
2021/08/31 03:18:44;;;;;;;10.43;7.10;;;13.90;99.90;;;;;;5023143;28;20926;-75
2021/08/31 03:21:31;;;;;;;15.77;8.37;;;13.90;99.90;;;;;;5024899;28;20424;-75
2021/08/31 03:24:17;;;;;;;10.37;7.67;;;13.90;99.90;;;;;;5022579;28;20519;-75
2021/08/31 03:27:03;;;;;;;8.87;7.20;;;13.90;99.90;;;;;;5026830;28;20456;-75
2021/08/31 03:29:49;;;;;;;7.50;6.20;;;13.90;99.90;;;;;;5022311;28;20501;-75
2021/08/31 03:32:34;;;;;;;11.63;7.80;;;13.90;99.90;;;;;;5020506;28;20427;-75
2021/08/31 03:35:21;;;;;;;10.43;6.33;;;13.90;99.90;;;;;;5026145;28;20483;-75
2021/08/31 03:38:08;;;;;;;11.33;7.13;;;14.00;99.90;;;;;;5027945;28;20461;-76
2021/08/31 03:40:53;;;;;;;8.90;7.20;;;13.90;99.90;;;;;;5032225;28;20503;-75
2021/08/31 03:43:39;;;;;;;8.80;7.03;;;13.90;99.90;;;;;;5024484;28;20492;-75
2021/08/31 03:46:25;;;;;;;17.13;7.03;;;13.80;99.90;;;;;;5025293;28;20477;-75
2021/08/31 03:49:10;;;;;;;8.40;6.83;;;13.80;99.90;;;;;;5026033;28;20448;-75
2021/08/31 03:51:56;;;;;;;13.60;8.73;;;13.80;99.90;;;;;;5033002;28;20432;-75
2021/08/31 03:54:43;;;;;;;12.23;7.90;;;13.70;99.90;;;;;;5024147;28;20469;-75
2021/08/31 03:57:29;;;;;;;18.13;7.83;;;13.80;99.90;;;;;;5031949;28;20472;-75
2021/08/31 04:00:15;;;;;;;10.33;6.70;;;13.90;99.90;;;;;;5025977;28;20799;-74
2021/08/31 04:03:01;;;;;;;10.40;6.60;;;14.00;99.90;;;;;;5024739;28;20466;-75
2021/08/31 04:05:47;;;;;;;14.30;6.40;;;13.80;99.90;;;;;;5029573;28;20452;-76
2021/08/31 04:08:32;;;;;;;9.30;6.63;;;13.80;99.90;;;;;;5029694;28;20979;-75
2021/08/31 04:11:19;;;;;;;16.10;7.00;;;13.70;99.90;;;;;;5026688;28;20428;-75
2021/08/31 04:14:05;;;;;;;10.60;6.83;;;13.60;99.90;;;;;;5025623;28;20419;-75
2021/08/31 04:16:50;;;;;;;9.60;6.50;;;13.50;99.90;;;;;;5023478;28;20449;-74
2021/08/31 04:19:36;;;;;;;17.17;7.47;;;13.40;99.90;;;;;;5027375;28;20444;-75
2021/08/31 04:22:21;;;;;;;10.43;7.33;;;13.30;99.90;;;;;;5026669;28;20426;-75
2021/08/31 04:25:08;;;;;;;11.00;7.20;;;13.30;99.90;;;;;;5021788;28;20415;-75
2021/08/31 04:27:56;;;;;;;12.43;7.40;;;13.40;99.90;;;;;;5028921;28;20805;-75
2021/08/31 04:30:41;;;;;;;10.00;8.63;;;13.40;99.90;;;;;;5022452;28;20476;-75
2021/08/31 04:33:27;;;;;;;9.00;7.43;;;13.40;99.90;;;;;;5027071;28;21494;-75
2021/08/31 04:36:12;;;;;;;9.27;7.70;;;13.30;99.90;;;;;;5023415;28;20440;-75
2021/08/31 04:38:58;;;;;;;17.57;7.50;;;13.40;99.90;;;;;;5015671;28;20444;-75
2021/08/31 04:41:44;;;;;;;10.87;7.23;;;13.50;99.90;;;;;;5030830;28;20432;-75
2021/08/31 04:44:31;;;;;;;10.10;7.50;;;13.50;99.90;;;;;;5031278;28;20479;-75
2021/08/31 04:47:17;;;;;;;9.10;7.23;;;13.60;99.90;;;;;;5019051;28;20947;-75
2021/08/31 04:50:03;;;;;;;14.03;8.33;;;13.60;99.90;;;;;;5022033;28;20477;-75
2021/08/31 04:52:49;;;;;;;9.43;7.40;;;13.70;99.90;;;;;;5031584;28;20957;-75
2021/08/31 04:55:35;;;;;;;11.80;7.10;;;13.70;99.90;;;;;;5022710;28;20547;-75
2021/08/31 04:58:20;;;;;;;17.63;8.83;;;13.60;99.90;;;;;;5023355;28;20782;-75
2021/08/31 05:01:07;;;;;;;9.60;7.00;;;13.50;99.90;;;;;;5023772;28;20455;-75
2021/08/31 05:03:53;;;;;;;9.80;8.30;;;13.50;99.90;;;;;;5022364;28;20569;-75
2021/08/31 05:06:39;;;;;;;13.53;8.83;;;13.70;99.90;;;;;;5028486;28;20452;-75
2021/08/31 05:09:24;;;;;;;14.03;8.47;;;13.70;99.90;;;;;;5029388;28;20442;-75
2021/08/31 05:12:10;;;;;;;10.93;7.70;;;13.80;99.90;;;;;;5027657;28;20810;-75
2021/08/31 05:14:56;;;;;;;8.90;7.27;;;13.80;99.90;;;;;;5026402;28;20817;-75
2021/08/31 05:17:43;;;;;;;9.40;7.20;;;13.80;99.90;;;;;;5027927;28;20478;-75
2021/08/31 05:20:29;;;;;;;16.63;7.80;;;13.90;99.90;;;;;;5027645;28;20479;-75
2021/08/31 05:23:14;;;;;;;12.67;7.60;;;14.10;99.90;;;;;;5022121;28;20439;-75
2021/08/31 05:26:00;;;;;;;9.60;7.10;;;14.10;99.90;;;;;;5019071;28;20962;-75
2021/08/31 05:28:46;;;;;;;8.37;7.47;;;14.00;99.90;;;;;;5018718;28;20455;-75
2021/08/31 05:31:31;;;;;;;13.80;7.93;;;14.00;99.90;;;;;;5024907;28;20806;-75
2021/08/31 05:34:19;;;;;;;11.70;7.97;;;14.00;99.90;;;;;;5026590;28;20831;-75
2021/08/31 05:37:05;;;;;;;10.87;8.00;;;14.00;99.90;;;;;;5018739;28;20528;-75
2021/08/31 05:39:50;;;;;;;9.07;7.50;;;14.00;99.90;;;;;;5034736;28;20423;-75
2021/08/31 05:42:36;;;;;;;12.03;9.20;;;14.00;99.90;;;;;;5028117;28;20449;-75
2021/08/31 05:45:22;;;;;;;11.87;8.63;;;14.10;99.90;;;;;;5023859;28;20427;-75
2021/08/31 05:48:08;;;;;;;10.77;8.30;;;14.20;99.90;;;;;;5018963;28;20509;-75
2021/08/31 05:50:54;;;;;;;13.07;8.90;;;14.40;99.90;;;;;;5030428;28;20993;-75
2021/08/31 05:53:40;;;;;;;13.40;8.83;;;14.60;99.90;;;;;;5019925;28;20439;-75
2021/08/31 05:56:26;;;;;;;13.60;9.70;;;14.50;99.90;;;;;;5022221;28;20399;-75
2021/08/31 05:59:11;;;;;;;14.37;9.30;;;14.70;99.90;;;;;;5016262;28;20945;-75
2021/08/31 06:01:57;;;;;;;11.57;8.50;;;14.80;99.90;;;;;;5025535;28;20414;-75
2021/08/31 06:04:43;;;;;;;14.10;9.00;;;14.90;99.90;;;;;;5030247;28;20543;-75
2021/08/31 06:07:30;;;;;;;13.53;9.90;;;14.90;99.90;;;;;;5021829;28;20932;-75
2021/08/31 06:10:17;;;;;;;12.13;7.90;;;14.80;99.90;;;;;;5019560;28;20566;-75
2021/08/31 06:13:03;;;;;;;9.53;8.20;;;14.80;99.90;;;;;;5025525;28;20443;-75
2021/08/31 06:15:48;;;;;;;12.70;8.90;;;14.80;99.90;;;;;;5029465;28;20407;-75
2021/08/31 06:18:34;;;;;;;13.67;9.43;;;14.90;99.90;;;;;;5021598;28;20450;-75
2021/08/31 06:21:20;;;;;;;14.40;8.93;;;15.00;99.90;;;;;;5030858;28;20427;-75
2021/08/31 06:24:07;;;;;;;10.70;8.10;;;15.10;99.90;;;;;;5021525;28;20447;-75
2021/08/31 06:26:53;;;;;;;13.73;9.63;;;15.20;99.90;;;;;;5029869;28;20487;-75
2021/08/31 06:29:39;;;;;;;11.40;9.33;;;15.30;99.90;;;;;;5028614;28;20574;-75
2021/08/31 06:32:25;;;;;;;11.03;8.83;;;15.40;99.90;;;;;;5029369;28;20434;-75
2021/08/31 06:35:11;;;;;;;13.20;10.03;;;15.40;99.90;;;;;;5024493;28;20398;-75
2021/08/31 06:37:56;;;;;;;18.27;9.83;;;15.50;99.90;;;;;;5025870;28;20423;-75
2021/08/31 06:40:44;;;;;;;14.87;9.87;;;15.60;99.90;;;;;;5037566;28;20432;-75
2021/08/31 06:43:29;;;;;;;10.57;9.47;;;15.80;99.90;;;;;;5034018;28;20873;-75
2021/08/31 06:46:15;;;;;;;10.80;9.07;;;15.90;99.90;;;;;;5014925;28;20560;-75
2021/08/31 06:49:01;;;;;;;11.40;8.60;;;16.00;99.90;;;;;;5026994;28;20824;-75
2021/08/31 06:51:46;;;;;;;14.77;9.77;;;16.10;99.90;;;;;;5032125;28;20921;-75
2021/08/31 06:54:32;;;;;;;12.57;10.17;;;16.30;99.90;;;;;;5030859;28;20907;-75
2021/08/31 06:57:20;;;;;;;10.20;7.73;;;16.40;99.90;;;;;;5032799;28;20439;-75
2021/08/31 07:00:08;;;;;;;10.07;8.03;;;16.50;99.90;;;;;;5032573;28;20817;-75
2021/08/31 07:02:54;;;;;;;10.60;8.20;;;16.60;99.90;;;;;;5031663;28;20419;-75
2021/08/31 07:05:39;;;;;;;9.37;7.90;;;16.70;99.90;;;;;;5032461;28;20818;-75
2021/08/31 07:08:25;;;;;;;9.13;7.97;;;16.70;99.90;;;;;;5030109;28;20834;-75
2021/08/31 07:11:10;;;;;;;7.97;7.17;;;16.60;99.90;;;;;;5035022;28;20852;-75
2021/08/31 07:13:58;;;;;;;11.67;8.30;;;16.50;99.90;;;;;;5034039;28;20496;-75
2021/08/31 07:16:43;;;;;;;10.93;7.00;;;16.50;99.90;;;;;;5025007;28;20432;-75
2021/08/31 07:19:29;;;;;;;9.83;8.40;;;16.60;99.90;;;;;;5034083;28;20425;-75
2021/08/31 07:22:17;;;;;;;8.90;7.43;;;16.70;99.90;;;;;;5025471;28;20462;-75
2021/08/31 07:25:03;;;;;;;11.40;7.13;;;16.80;99.90;;;;;;5013925;28;20557;-75
2021/08/31 07:27:48;;;;;;;17.20;7.60;;;16.90;99.90;;;;;;5033003;28;20415;-75
2021/08/31 07:30:36;;;;;;;9.40;8.13;;;16.90;99.90;;;;;;5032872;28;20444;-75
2021/08/31 07:33:21;;;;;;;10.10;8.00;;;16.90;99.90;;;;;;5022819;28;20990;-75
2021/08/31 07:36:07;;;;;;;10.50;7.57;;;16.90;99.90;;;;;;5022414;28;20434;-75
2021/08/31 07:38:55;;;;;;;10.90;7.23;;;16.90;99.90;;;;;;5025905;28;20795;-75
2021/08/31 07:41:40;;;;;;;9.60;7.57;;;16.90;99.90;;;;;;5030546;28;20424;-75
2021/08/31 07:44:26;;;;;;;11.60;7.80;;;16.80;99.90;;;;;;5033813;28;20668;-75
2021/08/31 07:47:14;;;;;;;11.63;7.37;;;16.80;99.90;;;;;;5024643;28;20448;-75
2021/08/31 07:50:00;;;;;;;13.20;9.23;;;16.70;99.90;;;;;;5012753;28;20444;-75
2021/08/31 07:52:46;;;;;;;11.50;8.60;;;16.70;99.90;;;;;;5031869;28;20515;-75
2021/08/31 07:55:32;;;;;;;13.23;8.23;;;16.70;99.90;;;;;;5024344;28;20450;-75
2021/08/31 07:58:18;;;;;;;12.70;8.27;;;16.70;99.90;;;;;;5033359;28;20403;-75
2021/08/31 08:01:04;;;;;;;9.70;8.20;;;16.70;99.90;;;;;;5024426;28;20814;-75
2021/08/31 08:03:51;;;;;;;9.50;7.80;;;16.70;99.90;;;;;;5022570;28;20531;-75
2021/08/31 08:06:38;;;;;;;8.97;7.70;;;16.70;99.90;;;;;;5024242;28;20462;-76
2021/08/31 08:09:24;;;;;;;9.50;7.47;;;16.70;99.90;;;;;;5035170;28;20523;-76
2021/08/31 08:12:11;;;;;;;11.23;7.87;;;16.70;99.90;;;;;;5024523;28;20784;-76
2021/08/31 08:14:57;;;;;;;12.80;8.30;;;16.70;99.90;;;;;;5031982;28;20539;-76
2021/08/31 08:17:43;;;;;;;8.57;7.10;;;16.70;99.90;;;;;;5030074;28;20416;-76
2021/08/31 08:20:30;;;;;;;10.30;7.90;;;16.70;99.90;;;;;;5032250;28;20425;-76
2021/08/31 08:23:16;;;;;;;13.97;7.40;;;16.80;99.90;;;;;;5027411;28;20501;-76
2021/08/31 08:26:01;;;;;;;11.03;8.73;;;16.80;99.90;;;;;;5027983;28;20449;-76
2021/08/31 08:28:47;;;;;;;10.43;7.53;;;16.90;99.90;;;;;;5031428;28;21051;-76
2021/08/31 08:31:34;;;;;;;14.23;8.40;;;16.90;99.90;;;;;;5031096;28;20975;-76
2021/08/31 08:34:19;;;;;;;12.80;6.77;;;16.90;99.90;;;;;;5027774;28;20492;-75
2021/08/31 08:37:07;;;;;;;8.27;6.80;;;17.00;99.90;;;;;;5029462;28;20478;-75
2021/08/31 08:39:54;;;;;;;13.33;8.43;;;17.10;99.90;;;;;;5035779;28;20788;-76
2021/08/31 08:42:40;;;;;;;8.83;7.70;;;17.10;99.90;;;;;;5032409;28;20395;-75
2021/08/31 08:45:25;;;;;;;11.50;6.63;;;17.20;99.90;;;;;;5057542;22;20486;-72
2021/08/31 08:48:18;;;;;;;7.90;7.10;;;17.40;99.90;;;;;;5052544;28;20434;-72
2021/08/31 08:51:06;;;;;;;9.63;7.00;;;17.60;99.90;;;;;;5046209;28;20468;-72
2021/08/31 08:53:53;;;;;;;12.23;6.70;;;17.60;99.90;;;;;;5051512;28;20422;-72
2021/08/31 08:56:38;;;;;;;11.80;7.00;;;17.70;99.90;;;;;;5030762;28;20456;-74
2021/08/31 08:59:25;;;;;;;14.90;7.50;;;17.90;99.90;;;;;;5026703;28;20419;-71
2021/08/31 09:02:13;;;;;;;9.40;7.20;;;18.00;99.90;;;;;;5022031;28;20453;-72
2021/08/31 09:04:59;;;;;;;11.87;7.73;;;18.10;99.90;;;;;;5026815;28;20466;-71
2021/08/31 09:07:45;;;;;;;7.90;6.10;;;18.20;99.90;;;;;;5031030;28;20964;-70
2021/08/31 09:10:32;;;;;;;8.80;7.20;;;18.30;99.90;;;;;;5018749;28;20492;-71
2021/08/31 09:13:21;;;;;;;8.63;5.60;;;18.40;99.90;;;;;;5020738;28;20546;-70
2021/08/31 09:16:24;;;;;;;11.20;6.40;;;18.40;99.90;;;;;;5025021;28;20412;-72
2021/08/31 09:19:11;;;;;;;7.23;6.03;;;18.50;99.90;;;;;;5031911;28;20873;-72
2021/08/31 09:22:12;;;;;;;7.87;6.43;;;18.70;99.90;;;;;;5032113;28;20417;-71
2021/08/31 09:25:00;;;;;;;7.40;6.07;;;18.70;99.90;;;;;;5031862;28;20445;-72
2021/08/31 09:27:50;;;;;;;7.37;6.57;;;18.80;99.90;;;;;;5031799;28;20484;-71
2021/08/31 09:30:36;;;;;;;9.40;6.10;;;18.90;99.90;;;;;;5012326;28;20441;-72
2021/08/31 09:33:21;;;;;;;11.20;6.50;;;18.90;99.90;;;;;;5011933;28;20475;-71
2021/08/31 09:36:11;;;;;;;5.97;5.37;;;19.00;99.90;;;;;;5011766;28;20416;-71
2021/08/31 09:38:58;;;;;;;8.03;5.60;;;19.00;99.90;;;;;;5011874;28;20403;-71
2021/08/31 09:41:45;;;;;;;9.60;5.37;;;19.20;99.90;;;;;;5029810;28;20422;-71
2021/08/31 09:44:33;;;;;;;7.60;5.40;;;19.30;99.90;;;;;;5031226;28;20441;-72
2021/08/31 09:47:19;;;;;;;9.10;5.27;;;19.40;99.90;;;;;;5031815;28;20537;-72
2021/08/31 09:50:06;;;;;;;9.20;6.10;;;19.40;99.90;;;;;;5031500;28;20837;-71
2021/08/31 09:53:01;;;;;;;10.50;5.70;;;19.60;99.90;;;;;;5031536;28;20425;-71
2021/08/31 09:55:49;;;;;;;7.80;4.93;;;19.60;99.90;;;;;;5030967;28;20449;-71
2021/08/31 09:58:36;;;;;;;8.23;6.30;;;19.70;99.90;;;;;;5031058;28;20930;-71
2021/08/31 10:01:23;;;;;;;7.80;5.30;;;19.80;99.90;;;;;;5031514;28;20475;-71
2021/08/31 10:04:09;;;;;;;5.70;5.00;;;20.00;99.90;;;;;;5031339;28;20807;-71
2021/08/31 10:06:55;;;;;;;6.50;5.13;;;20.20;99.90;;;;;;5031264;28;20466;-71
2021/08/31 10:09:42;;;;;;;7.33;5.30;;;20.30;99.90;;;;;;5033999;28;20520;-71
2021/08/31 10:12:30;;;;;;;6.97;5.43;;;20.40;99.90;;;;;;5027880;28;20457;-71
2021/08/31 10:15:17;;;;;;;8.20;6.20;;;20.40;99.90;;;;;;5030807;28;21013;-70
2021/08/31 10:18:04;;;;;;;7.53;5.33;;;20.30;99.90;;;;;;5031438;28;20485;-71
2021/08/31 10:20:53;;;;;;;8.93;5.17;;;20.30;99.90;;;;;;5031068;28;20527;-71
2021/08/31 10:23:43;;;;;;;6.37;5.00;;;20.20;99.90;;;;;;5031126;28;20429;-71
2021/08/31 10:26:30;;;;;;;8.30;4.73;;;20.10;99.90;;;;;;5030681;28;20594;-70
2021/08/31 10:29:29;;;;;;;7.13;5.93;;;20.00;99.90;;;;;;5031294;28;20486;-71
2021/08/31 10:32:32;;;;;;;10.20;6.10;;;19.80;99.90;;;;;;5031404;28;20422;-72
2021/08/31 10:35:53;;;;;;;11.63;5.70;;;19.80;99.90;;;;;;5030532;28;20424;-72
2021/08/31 10:38:49;;;;;;;9.30;4.97;;;19.80;99.90;;;;;;5031120;28;20421;-71
2021/08/31 10:41:46;;;;;;;13.53;5.33;;;19.70;99.90;;;;;;5030692;28;20429;-71
2021/08/31 10:44:42;;;;;;;9.90;5.03;;;19.90;99.90;;;;;;5030370;28;20437;-71
2021/08/31 10:47:32;;;;;;;11.13;5.50;;;20.00;99.90;;;;;;5031064;28;20430;-71
2021/08/31 10:50:23;;;;;;;6.33;4.80;;;20.10;99.90;;;;;;5030947;28;20482;-71
2021/08/31 10:53:10;;;;;;;5.87;4.67;;;20.20;99.90;;;;;;5030784;28;20405;-71
2021/08/31 10:55:57;;;;;;;8.33;5.80;;;20.40;99.90;;;;;;5030368;28;20444;-71
2021/08/31 10:58:48;;;;;;;13.90;5.17;;;20.60;99.90;;;;;;5030915;28;20876;-71
2021/08/31 11:01:38;;;;;;;6.77;5.13;;;20.60;99.90;;;;;;5030890;28;20492;-71
2021/08/31 11:04:28;;;;;;;8.93;5.57;;;20.80;99.90;;;;;;5030882;28;21095;-71
2021/08/31 11:07:13;;;;;;;6.90;5.30;;;20.90;99.90;;;;;;5030540;28;20435;-71
2021/08/31 11:10:01;;;;;;;15.37;5.40;;;21.10;99.90;;;;;;5033936;28;20572;-71
2021/08/31 11:12:46;;;;;;;5.37;4.53;;;21.30;99.90;;;;;;5029413;28;20790;-71
2021/08/31 11:15:32;;;;;;;8.43;5.60;;;21.50;97.60;;;;;;5030257;28;20477;-71
2021/08/31 11:18:20;;;;;;;8.57;4.47;;;21.70;94.90;;;;;;5030709;28;20427;-70
2021/08/31 11:21:05;;;;;;;6.33;4.93;;;21.80;94.10;;;;;;5030623;28;20834;-71
2021/08/31 11:23:51;;;;;;;7.00;4.60;;;21.60;95.30;;;;;;5029657;28;20459;-71
2021/08/31 11:26:38;;;;;;;8.87;5.13;;;21.40;94.80;;;;;;5026881;28;20420;-72
2021/08/31 11:29:24;;;;;;;6.30;5.00;;;21.10;97.70;;;;;;5014539;28;20403;-71
2021/08/31 11:32:09;;;;;;;6.50;5.47;;;21.10;97.30;;;;;;5022268;28;20565;-70
2021/08/31 11:35:02;;;;;;;7.13;5.10;;;20.90;98.30;;;;;;5027380;28;20529;-71
2021/08/31 11:37:49;;;;;;;9.33;5.13;;;21.00;98.70;;;;;;5027896;28;20815;-71
2021/08/31 11:40:35;;;;;;;7.30;5.47;;;20.90;98.00;;;;;;5033914;28;20565;-71
2021/08/31 11:43:30;;;;;;;6.73;4.67;;;21.00;96.30;;;;;;5032354;28;20451;-71
2021/08/31 11:46:24;;;;;;;5.27;4.20;;;21.20;92.40;;;;;;5029300;28;20482;-72
2021/08/31 11:49:15;;;;;;;6.70;4.87;;;21.40;90.90;;;;;;5033487;28;20426;-71
2021/08/31 11:52:04;;;;;;;5.53;4.33;;;21.50;88.50;;;;;;5032534;28;20509;-70
2021/08/31 11:54:55;;;;;;;7.87;4.93;;;21.50;90.90;;;;;;5029128;28;21011;-72
2021/08/31 11:57:40;;;;;;;5.63;4.57;;;21.30;90.00;;;;;;5033752;28;20425;-71
2021/08/31 12:00:42;;;;;;;11.37;4.57;;;21.00;90.80;;;;;;5032403;28;20425;-71
2021/08/31 12:03:30;;;;;;;8.13;4.60;;;20.90;95.30;;;;;;5031976;28;20453;-71
2021/08/31 12:06:16;;;;;;;7.70;4.93;;;20.70;95.90;;;;;;5033249;28;20445;-71
2021/08/31 12:09:02;;;;;;;6.47;5.00;;;20.40;97.90;;;;;;5027804;28;21071;-71
2021/08/31 12:11:48;;;;;;;9.20;5.47;;;20.10;99.90;;;;;;5032063;28;20835;-70
2021/08/31 12:14:34;;;;;;;7.37;5.00;;;19.70;99.90;;;;;;5029438;28;20478;-71
2021/08/31 12:17:30;;;;;;;7.03;5.40;;;19.50;99.90;;;;;;5033282;28;20492;-72
2021/08/31 12:20:18;;;;;;;6.73;5.47;;;19.20;99.90;;;;;;5031514;28;20427;-71
2021/08/31 12:23:06;;;;;;;10.10;6.53;;;19.20;99.90;;;;;;5030507;28;20533;-71
2021/08/31 12:25:53;;;;;;;7.80;5.93;;;19.20;99.90;;;;;;5032696;28;20453;-71
2021/08/31 12:28:58;;;;;;;10.40;6.70;;;19.20;99.90;;;;;;5031683;28;20453;-72
2021/08/31 12:31:43;;;;;;;6.60;5.90;;;19.30;99.90;;;;;;5033077;28;20609;-72
2021/08/31 12:34:31;;;;;;;7.43;5.90;;;19.30;99.90;;;;;;5028548;28;20458;-71
2021/08/31 12:37:32;;;;;;;7.70;5.33;;;19.40;99.90;;;;;;5032068;28;20419;-72
2021/08/31 12:40:21;;;;;;;15.20;5.40;;;19.40;99.90;;;;;;5032948;28;20412;-71
2021/08/31 12:43:09;;;;;;;7.90;6.10;;;19.40;99.90;;;;;;5024530;28;20427;-71
2021/08/31 12:45:56;;;;;;;8.10;5.40;;;19.50;99.90;;;;;;5032266;28;20472;-71
2021/08/31 12:48:45;;;;;;;8.80;6.53;;;19.60;99.90;;;;;;5028010;28;20429;-72
2021/08/31 12:51:34;;;;;;;6.90;5.10;;;19.80;99.90;;;;;;5031664;28;21073;-71
2021/08/31 12:54:33;;;;;;;8.27;5.83;;;20.00;99.90;;;;;;5029857;28;20466;-71
2021/08/31 12:57:24;;;;;;;8.63;5.53;;;20.50;99.90;;;;;;5023767;28;20424;-71
2021/08/31 13:00:21;;;;;;;6.47;4.80;;;20.90;99.90;;;;;;5032170;28;20560;-71
2021/08/31 13:03:07;;;;;;;7.13;5.20;;;21.10;99.90;;;;;;5029160;28;20963;-69
2021/08/31 13:05:53;;;;;;;8.00;5.13;;;21.00;99.90;;;;;;5030624;28;20529;-70
2021/08/31 13:08:41;;;;;;;7.17;5.20;;;21.10;99.90;;;;;;5027354;28;20450;-70
2021/08/31 13:11:27;;;;;;;9.37;6.10;;;21.20;99.90;;;;;;5026981;28;20470;-71
2021/08/31 13:14:14;;;;;;;8.00;5.13;;;21.20;99.90;;;;;;5023618;28;20458;-72
2021/08/31 13:17:00;;;;;;;7.80;6.00;;;21.10;99.90;;;;;;5024480;28;20431;-71
2021/08/31 13:19:46;;;;;;;13.60;6.27;;;21.00;99.90;;;;;;5028642;28;20454;-70
2021/08/31 13:22:32;;;;;;;10.50;5.60;;;20.80;99.90;;;;;;5028158;28;20509;-70
2021/08/31 13:25:19;;;;;;;9.53;6.23;;;20.80;99.90;;;;;;5030516;28;20808;-70
2021/08/31 13:28:06;;;;;;;7.67;5.27;;;20.70;99.90;;;;;;5020998;28;20801;-71
2021/08/31 13:30:51;;;;;;;7.80;5.80;;;20.70;99.90;;;;;;5027274;28;20483;-72
2021/08/31 13:33:37;;;;;;;7.40;5.30;;;20.60;99.90;;;;;;5027967;28;20421;-71
2021/08/31 13:36:22;;;;;;;6.27;5.00;;;20.50;99.90;;;;;;5024946;28;20465;-70
2021/08/31 13:39:09;;;;;;;6.60;5.57;;;20.40;99.90;;;;;;5028530;28;20420;-70
2021/08/31 13:41:56;;;;;;;7.20;5.80;;;20.20;99.90;;;;;;5031328;28;20435;-71
2021/08/31 13:44:42;;;;;;;7.93;5.60;;;20.10;99.90;;;;;;5029637;28;20482;-71
2021/08/31 13:47:27;;;;;;;6.07;5.03;;;20.10;99.90;;;;;;5030623;28;20426;-71
2021/08/31 13:50:13;;;;;;;6.00;5.00;;;20.10;99.90;;;;;;5029190;28;20442;-70
2021/08/31 13:52:59;;;;;;;7.40;5.17;;;20.30;99.90;;;;;;5024607;28;20554;-70
2021/08/31 13:55:44;;;;;;;5.70;4.70;;;20.50;99.90;;;;;;5022453;28;20613;-70
2021/08/31 13:58:31;;;;;;;8.90;5.20;;;20.90;99.90;;;;;;5027708;28;20512;-70
2021/08/31 14:01:17;;;;;;;7.03;5.33;;;21.40;99.90;;;;;;5024891;28;21022;-70
2021/08/31 14:04:04;;;;;;;6.03;5.23;;;21.80;93.30;;;;;;5023055;28;20442;-70
2021/08/31 14:06:50;;;;;;;6.70;5.03;;;22.20;92.10;;;;;;5029350;28;20536;-70
2021/08/31 14:09:35;;;;;;;7.97;5.93;;;22.40;90.90;;;;;;5022210;28;20450;-71
2021/08/31 14:12:21;;;;;;;7.57;4.87;;;22.40;83.80;;;;;;5029115;28;21065;-70
2021/08/31 14:15:09;;;;;;;7.23;5.70;;;21.90;84.00;;;;;;5019428;28;20565;-70
2021/08/31 14:17:55;;;;;;;8.03;6.20;;;21.60;90.00;;;;;;5020779;28;20535;-70
2021/08/31 14:20:40;;;;;;;7.67;5.80;;;21.40;90.10;;;;;;5028786;28;20446;-70
2021/08/31 14:23:26;;;;;;;6.47;5.43;;;21.20;92.30;;;;;;5025179;28;20492;-70
2021/08/31 14:26:12;;;;;;;6.67;5.03;;;20.90;93.50;;;;;;5025621;28;20541;-70